Time;durP1;ratioP1;P1;durP2;ratioP2;P2;SDS_P1;SDS_P2;PMS_P1;PMS_P2;Temp;Humidity;BMP_temperature;BMP_pressure;BME280_temperature;BME280_humidity;BME280_pressure;Samples;Min_cycle;Max_cycle;Signal;HPM_P1;HPM_P2
2022/07/11 00:00:09;;;;;;;2.67;2.30;;;;;;;17.37;100.00;62659.56;5073580;28;20235;-76
2022/07/11 00:02:36;;;;;;;4.37;2.33;;;;;;;16.58;100.00;62577.53;5073084;28;20197;-76
2022/07/11 00:05:04;;;;;;;3.20;2.40;;;;;;;16.56;100.00;62575.38;5072809;28;20206;-77
2022/07/11 00:07:33;;;;;;;4.03;2.57;;;;;;;16.94;100.00;62611.19;5072501;28;20214;-75
2022/07/11 00:09:59;;;;;;;6.40;2.70;;;;;;;16.71;100.00;62586.41;5069591;28;20207;-74
2022/07/11 00:12:27;;;;;;;2.97;2.50;;;;;;;16.89;100.00;62610.94;5067539;28;20196;-76
2022/07/11 00:14:54;;;;;;;3.07;2.70;;;;;;;16.88;100.00;62605.25;5056947;28;20211;-76
2022/07/11 00:17:23;;;;;;;6.67;2.70;;;;;;;16.81;100.00;62594.59;5055662;28;20876;-74
2022/07/11 00:19:50;;;;;;;5.60;2.57;;;;;;;16.77;100.00;62593.41;5064789;28;20197;-75
2022/07/11 00:22:19;;;;;;;3.80;2.57;;;;;;;16.72;100.00;62587.50;5067250;28;20207;-77
2022/07/11 00:24:48;;;;;;;3.07;2.33;;;;;;;16.38;100.00;62545.69;5072441;28;20208;-74
2022/07/11 00:27:16;;;;;;;3.33;2.20;;;;;;;16.70;100.00;62587.91;5049719;28;20245;-74
2022/07/11 00:29:43;;;;;;;3.60;2.00;;;;;;;16.78;100.00;62599.09;5052429;28;20590;-76
2022/07/11 00:32:10;;;;;;;3.20;1.90;;;;;;;16.86;100.00;62602.56;5052181;28;20262;-74
2022/07/11 00:34:38;;;;;;;3.10;2.17;;;;;;;16.94;100.00;62615.81;5052049;28;20207;-74
2022/07/11 00:37:06;;;;;;;2.53;1.83;;;;;;;16.94;100.00;62608.09;5051842;28;20209;-75
2022/07/11 00:39:34;;;;;;;2.43;1.70;;;;;;;17.09;100.00;62629.38;5052288;28;20203;-76
2022/07/11 00:42:03;;;;;;;1.90;1.70;;;;;;;17.24;100.00;62643.53;5051701;28;20263;-75
2022/07/11 00:44:31;;;;;;;2.53;1.93;;;;;;;16.83;100.00;62601.91;5050453;28;20205;-74
2022/07/11 00:46:58;;;;;;;1.50;1.40;;;;;;;17.30;100.00;62644.88;5039188;28;20200;-77
2022/07/11 00:49:25;;;;;;;3.93;2.07;;;;;;;17.25;100.00;62644.59;5051626;28;20577;-74
2022/07/11 00:51:52;;;;;;;2.10;1.87;;;;;;;17.35;100.00;62657.44;5051901;28;20290;-76
2022/07/11 00:54:22;;;;;;;3.20;1.60;;;;;;;17.29;100.00;62648.38;5051611;28;20240;-76
2022/07/11 00:56:51;;;;;;;1.83;1.50;;;;;;;17.03;100.00;62620.88;5052058;28;20204;-76
2022/07/11 00:59:19;;;;;;;3.57;2.10;;;;;;;17.12;100.00;62630.59;5051811;28;20204;-76
2022/07/11 01:01:48;;;;;;;1.90;1.80;;;;;;;17.14;100.00;62637.91;5051746;28;20232;-75
2022/07/11 01:04:15;;;;;;;2.30;1.70;;;;;;;17.11;100.00;62626.94;5051471;28;20288;-75
2022/07/11 01:06:42;;;;;;;6.70;1.90;;;;;;;17.17;100.00;62635.44;5051580;28;20201;-77
2022/07/11 01:09:10;;;;;;;4.10;1.87;;;;;;;17.13;100.00;62631.66;5051228;28;20216;-75
2022/07/11 01:11:37;;;;;;;3.90;2.00;;;;;;;17.14;100.00;62637.91;5041874;28;20205;-75
2022/07/11 01:14:04;;;;;;;2.37;1.80;;;;;;;17.15;100.00;62635.84;5047862;28;20217;-74
2022/07/11 01:16:35;;;;;;;2.20;1.90;;;;;;;17.07;100.00;62624.66;5051230;28;20212;-75
2022/07/11 01:19:03;;;;;;;3.27;1.67;;;;;;;17.19;100.00;62640.72;5047649;28;20204;-75
2022/07/11 01:21:32;;;;;;;2.17;1.80;;;;;;;17.02;100.00;62622.41;5042714;28;20264;-77
2022/07/11 01:24:02;;;;;;;2.90;1.90;;;;;;;17.02;100.00;62619.81;5051390;28;20205;-74
2022/07/11 01:26:32;;;;;;;2.17;1.80;;;;;;;17.02;100.00;62619.81;5062803;28;20235;-76
2022/07/11 01:29:06;;;;;;;2.30;2.00;;;;;;;16.74;100.00;62589.63;5071004;28;20196;-76
2022/07/11 01:31:34;;;;;;;2.20;2.00;;;;;;;16.76;100.00;62594.38;5071265;28;20204;-75
2022/07/11 01:34:01;;;;;;;4.90;1.93;;;;;;;16.94;100.00;62610.66;5071028;28;20274;-74
2022/07/11 01:36:28;;;;;;;2.53;1.93;;;;;;;16.86;100.00;62607.72;5071155;28;20278;-77
2022/07/11 01:38:55;;;;;;;5.00;1.77;;;;;;;16.31;100.00;62548.41;5071019;28;20591;-74
2022/07/11 01:41:24;;;;;;;3.10;2.03;;;;;;;16.89;100.00;62608.91;5070578;28;20631;-77
2022/07/11 01:43:52;;;;;;;2.13;1.87;;;;;;;16.85;100.00;62601.50;5070990;28;20211;-74
2022/07/11 01:46:21;;;;;;;3.30;1.90;;;;;;;16.75;100.00;62590.72;5071312;28;20204;-74
2022/07/11 01:48:49;;;;;;;4.23;2.10;;;;;;;16.28;100.00;62542.63;5070968;28;20204;-76
2022/07/11 01:51:16;;;;;;;2.83;1.73;;;;;;;16.62;100.00;62576.72;5070366;28;20675;-76
2022/07/11 01:53:45;;;;;;;1.83;1.73;;;;;;;16.61;100.00;62578.19;5070855;28;20665;-74
2022/07/11 01:56:13;;;;;;;2.87;2.10;;;;;;;16.59;100.00;62576.59;5070943;28;21129;-75
2022/07/11 01:58:42;;;;;;;2.37;1.90;;;;;;;16.62;100.00;62576.72;5070615;28;20212;-75
2022/07/11 02:01:09;;;;;;;3.03;2.10;;;;;;;16.55;100.00;62569.16;5070847;28;20231;-74
2022/07/11 02:03:38;;;;;;;2.33;2.00;;;;;;;16.54;100.00;62573.22;5071122;28;20212;-77
2022/07/11 02:06:06;;;;;;;2.37;2.00;;;;;;;16.59;100.00;62578.63;5070998;28;20202;-74
2022/07/11 02:08:33;;;;;;;3.50;1.90;;;;;;;16.62;100.00;62582.38;5070904;28;20216;-75
2022/07/11 02:11:00;;;;;;;1.90;1.80;;;;;;;16.69;100.00;62587.34;5071347;28;20230;-75
2022/07/11 02:13:27;;;;;;;3.57;1.80;;;;;;;16.70;100.00;62585.34;5070659;28;20227;-76
2022/07/11 02:15:55;;;;;;;2.50;2.30;;;;;;;16.62;100.00;62576.72;5070496;28;20192;-76
2022/07/11 02:18:24;;;;;;;3.53;1.90;;;;;;;16.28;100.00;62543.16;5070838;28;20207;-74
2022/07/11 02:20:51;;;;;;;2.40;2.20;;;;;;;16.38;100.00;62555.97;5057221;28;20227;-76
2022/07/11 02:23:19;;;;;;;5.00;2.10;;;;;;;16.14;100.00;62522.41;5070754;28;20200;-75
2022/07/11 02:25:46;;;;;;;7.10;2.50;;;;;;;15.96;100.00;62511.25;5070238;28;20232;-75
2022/07/11 02:28:14;;;;;;;2.67;2.20;;;;;;;15.74;100.00;62485.53;5070769;28;20205;-75
2022/07/11 02:30:45;;;;;;;3.07;2.27;;;;;;;16.06;100.00;62517.44;5051164;28;20232;-75
2022/07/11 02:33:15;;;;;;;3.13;2.10;;;;;;;15.25;100.00;62430.22;5053416;28;20247;-76
2022/07/11 02:35:42;;;;;;;3.30;2.17;;;;;;;15.92;100.00;62499.78;5064176;28;20307;-74
2022/07/11 02:38:11;;;;;;;4.07;2.87;;;;;;;15.79;100.00;62483.22;5070590;28;20200;-75
2022/07/11 02:40:38;;;;;;;3.17;2.00;;;;;;;15.73;100.00;62484.47;5070358;28;20200;-74
2022/07/11 02:43:05;;;;;;;5.17;2.10;;;;;;;15.70;100.00;62483.78;5071345;28;20196;-73
2022/07/11 02:45:33;;;;;;;3.17;1.90;;;;;;;15.67;100.00;62477.47;5073811;28;20283;-74
2022/07/11 02:48:00;;;;;;;1.80;1.70;;;;;;;15.79;100.00;62490.94;5071557;28;20206;-73
2022/07/11 02:50:29;;;;;;;3.03;1.83;;;;;;;15.23;100.00;62428.06;5070092;28;20203;-74
2022/07/11 02:52:58;;;;;;;2.33;1.70;;;;;;;15.88;100.00;62500.59;5057919;28;20201;-73
2022/07/11 02:55:25;;;;;;;1.70;1.60;;;;;;;15.94;100.00;62504.50;5070923;28;20201;-73
2022/07/11 02:57:52;;;;;;;4.50;1.73;;;;;;;16.00;100.00;62513.53;5070235;28;20231;-76
2022/07/11 03:00:19;;;;;;;2.40;1.80;;;;;;;15.88;100.00;62503.19;5070422;28;20205;-74
2022/07/11 03:02:48;;;;;;;2.77;1.90;;;;;;;16.01;100.00;62514.06;5060411;28;20224;-73
2022/07/11 03:05:15;;;;;;;3.83;1.90;;;;;;;15.96;100.00;62506.66;5073841;28;20196;-73
2022/07/11 03:07:45;;;;;;;2.43;1.70;;;;;;;15.92;100.00;62502.34;5073935;28;20239;-75
2022/07/11 03:10:13;;;;;;;3.23;1.90;;;;;;;15.96;100.00;62506.66;5074448;28;20207;-76
2022/07/11 03:12:41;;;;;;;2.43;1.93;;;;;;;15.93;100.00;62500.31;5074128;28;20208;-73
2022/07/11 03:15:10;;;;;;;3.40;1.73;;;;;;;16.04;100.00;62512.69;5074120;28;20251;-75
2022/07/11 03:17:38;;;;;;;2.30;2.07;;;;;;;16.03;100.00;62511.63;5074777;28;20204;-74
2022/07/11 03:20:07;;;;;;;2.77;2.20;;;;;;;16.10;100.00;62525.81;5062058;28;20213;-76
2022/07/11 03:22:34;;;;;;;5.17;1.90;;;;;;;16.09;100.00;62517.56;5072729;28;20581;-74
2022/07/11 03:25:06;;;;;;;3.57;1.80;;;;;;;16.12;100.00;62518.19;5073716;28;20196;-75
2022/07/11 03:27:33;;;;;;;3.70;1.80;;;;;;;15.41;100.00;62447.44;5073650;28;20200;-77
2022/07/11 03:30:00;;;;;;;2.33;2.07;;;;;;;16.20;100.00;62534.00;5073553;28;20215;-75
2022/07/11 03:32:28;;;;;;;2.10;1.63;;;;;;;16.25;100.00;62536.81;5073292;28;20276;-74
2022/07/11 03:37:39;;;;;;;3.27;2.17;;;;;;;16.45;100.00;62556.34;5073257;28;20203;-75
2022/07/11 03:40:13;;;;;;;3.07;2.10;;;;;;;16.25;100.00;62536.81;5035514;28;20209;-75
2022/07/11 03:42:42;;;;;;;2.93;2.10;;;;;;;16.45;100.00;62558.38;5071946;28;20236;-75
2022/07/11 03:45:09;;;;;;;2.07;1.70;;;;;;;16.54;100.00;62570.66;5073015;28;20207;-75
2022/07/11 03:47:37;;;;;;;3.17;1.73;;;;;;;16.58;100.00;62577.53;5073000;28;20196;-76
2022/07/11 03:50:05;;;;;;;8.10;2.10;;;;;;;16.30;100.00;62542.72;5073659;28;20518;-72
2022/07/11 03:52:33;;;;;;;3.40;2.03;;;;;;;16.86;100.00;62605.16;5072843;28;20604;-74
2022/07/11 03:55:01;;;;;;;6.47;2.07;;;;;;;16.55;100.00;62569.69;5072863;28;20207;-78
2022/07/11 03:57:30;;;;;;;2.13;1.70;;;;;;;16.88;100.00;62605.25;5073039;28;20277;-76
2022/07/11 03:59:57;;;;;;;6.10;1.80;;;;;;;16.38;100.00;62553.41;5072738;28;20205;-74
2022/07/11 04:02:24;;;;;;;2.10;1.80;;;;;;;17.06;100.00;62628.75;5073068;28;20220;-76
2022/07/11 04:04:51;;;;;;;2.90;1.80;;;;;;;17.12;100.00;62630.59;5072835;28;20228;-78
2022/07/11 04:07:20;;;;;;;2.47;1.90;;;;;;;16.82;100.00;62601.34;5072401;28;20262;-73
2022/07/11 04:09:48;;;;;;;2.43;1.90;;;;;;;17.03;100.00;62623.47;5054681;28;20235;-76
2022/07/11 04:12:17;;;;;;;2.80;1.70;;;;;;;17.03;100.00;62620.88;5071892;28;20266;-73
2022/07/11 04:14:46;;;;;;;3.43;2.30;;;;;;;17.02;100.00;62619.81;5072126;28;20231;-77
2022/07/11 04:17:13;;;;;;;3.60;2.03;;;;;;;16.64;100.00;62578.88;5072499;28;20276;-77
2022/07/11 04:19:42;;;;;;;4.07;2.30;;;;;;;17.31;100.00;62651.06;5065366;28;20208;-74
2022/07/11 04:22:10;;;;;;;2.67;1.87;;;;;;;16.63;100.00;62582.91;5059420;28;20305;-76
2022/07/11 04:24:37;;;;;;;3.43;1.83;;;;;;;17.01;100.00;62623.88;5061520;28;20197;-73
2022/07/11 04:27:06;;;;;;;4.43;2.10;;;;;;;17.42;100.00;62665.53;5063548;28;20224;-74
2022/07/11 04:29:34;;;;;;;2.47;1.90;;;;;;;17.03;100.00;62623.47;5060658;28;20200;-74
2022/07/11 04:32:03;;;;;;;2.27;1.83;;;;;;;17.40;100.00;62660.78;5055281;28;22065;-77
2022/07/11 04:34:30;;;;;;;3.47;1.73;;;;;;;17.58;100.00;62680.22;5068445;28;20200;-75
2022/07/11 04:36:57;;;;;;;2.93;1.77;;;;;;;17.07;100.00;62620.06;5059056;28;20199;-74
2022/07/11 04:39:26;;;;;;;3.27;2.00;;;;;;;17.51;100.00;62672.66;5063064;28;20258;-74
2022/07/11 04:41:54;;;;;;;3.63;2.03;;;;;;;17.67;100.00;62689.94;5058603;28;20220;-75
2022/07/11 04:44:21;;;;;;;2.70;2.00;;;;;;;17.60;100.00;62687.00;5060421;28;20227;-75
2022/07/11 04:46:48;;;;;;;4.40;1.90;;;;;;;17.70;100.00;62698.31;5056524;28;20201;-74
2022/07/11 04:49:18;;;;;;;4.47;2.30;;;;;;;17.71;100.00;62696.81;5059928;28;20235;-74
2022/07/11 04:51:46;;;;;;;6.50;2.37;;;;;;;17.19;100.00;62640.72;5059116;28;20208;-75
2022/07/11 04:54:15;;;;;;;6.63;2.40;;;;;;;17.70;100.00;62695.75;5053976;28;20201;-76
2022/07/11 04:56:42;;;;;;;4.73;2.23;;;;;;;17.82;100.00;62710.19;5062135;28;20205;-74
2022/07/11 04:59:09;;;;;;;2.20;2.00;;;;;;;18.05;100.00;62730.38;5053249;28;20660;-75
2022/07/11 05:01:36;;;;;;;2.67;2.10;;;;;;;18.03;100.00;62727.69;5065450;28;20213;-76
2022/07/11 05:04:05;;;;;;;4.67;2.30;;;;;;;18.36;100.00;62765.88;5065180;28;20196;-76
2022/07/11 05:06:33;;;;;;;6.50;1.90;;;;;;;18.53;100.00;62781.69;5059917;28;20612;-77
2022/07/11 05:09:00;;;;;;;2.70;2.20;;;;;;;18.30;100.00;62756.81;5057439;28;20211;-77
2022/07/11 05:11:28;;;;;;;3.80;2.10;;;;;;;18.59;100.00;62782.44;5071062;28;20207;-75
2022/07/11 05:13:56;;;;;;;3.27;2.17;;;;;;;18.70;100.00;62800.03;5070976;28;20227;-75
2022/07/11 05:16:24;;;;;;;3.13;1.90;;;;;;;18.86;100.00;62819.88;5071508;28;20205;-77
2022/07/11 05:18:51;;;;;;;4.23;1.80;;;;;;;18.72;100.00;62801.63;5070940;28;20207;-77
2022/07/11 05:21:21;;;;;;;3.13;2.30;;;;;;;18.99;100.00;62831.34;5070225;28;20212;-78
2022/07/11 05:23:50;;;;;;;4.10;1.80;;;;;;;18.72;100.00;62806.81;5070911;28;20232;-75
2022/07/11 05:26:20;;;;;;;3.07;2.20;;;;;;;18.73;100.00;62808.44;5071314;28;20607;-74
2022/07/11 05:28:51;;;;;;;2.37;2.10;;;;;;;18.53;100.00;62782.22;5071046;28;20366;-74
2022/07/11 05:31:19;;;;;;;2.77;2.07;;;;;;;18.63;100.00;62795.06;5072957;28;20655;-76
2022/07/11 05:33:46;;;;;;;4.37;2.33;;;;;;;18.74;100.00;62806.38;5071208;28;20293;-74
2022/07/11 05:36:13;;;;;;;4.63;2.40;;;;;;;18.95;100.00;62829.63;5071496;28;20207;-76
2022/07/11 05:38:41;;;;;;;2.67;1.90;;;;;;;19.14;100.00;62844.97;5070869;28;20283;-76
2022/07/11 05:41:11;;;;;;;7.47;2.47;;;;;;;19.01;100.00;62833.50;5070403;28;20586;-74
2022/07/11 05:43:39;;;;;;;6.83;2.50;;;;;;;19.34;100.00;62869.16;5070645;28;20232;-76
2022/07/11 05:46:06;;;;;;;22.80;4.80;;;;;;;19.38;100.00;62876.06;5068595;28;20207;-77
2022/07/11 05:48:34;;;;;;;3.73;1.90;;;;;;;19.14;100.00;62852.72;5068554;28;20203;-78
2022/07/11 05:51:01;;;;;;;48.93;5.50;;;;;;;18.75;100.00;62810.06;5068824;28;20632;-75
2022/07/11 05:53:28;;;;;;;6.30;2.43;;;;;;;19.59;100.00;62905.44;5069845;28;20283;-75
2022/07/11 05:55:56;;;;;;;4.47;1.90;;;;;;;19.47;100.00;62887.31;5071789;28;20196;-77
2022/07/11 05:58:26;;;;;;;17.30;2.87;;;;;;;18.05;100.00;62732.44;5071497;28;20649;-76
2022/07/11 06:00:55;;;;;;;4.60;1.93;;;;;;;19.01;100.00;62833.50;5073375;28;20554;-75
2022/07/11 06:03:23;;;;;;;8.20;2.10;;;;;;;19.50;100.00;62887.97;5079858;28;20301;-75
2022/07/11 06:05:51;;;;;;;3.70;1.80;;;;;;;19.33;100.00;62868.09;5077380;28;20212;-79
2022/07/11 06:11:12;;;;;;;2.97;1.70;;;;;;;20.02;100.00;62941.59;5072243;28;20636;-75
2022/07/11 06:13:41;;;;;;;3.17;1.60;;;;;;;20.15;100.00;62955.63;5082731;28;20266;-75
2022/07/11 06:16:09;;;;;;;6.20;1.83;;;;;;;20.15;100.00;62963.94;5074077;28;20207;-76
2022/07/11 06:18:36;;;;;;;6.73;2.13;;;;;;;20.84;100.00;63030.28;5073030;28;20204;-78
2022/07/11 06:21:03;;;;;;;13.87;2.53;;;;;;;21.08;100.00;63060.38;5066313;28;20204;-76
2022/07/11 06:23:30;;;;;;;38.63;5.33;;;;;;;20.79;100.00;63024.88;5059855;28;20224;-75
2022/07/11 06:25:57;;;;;;;8.50;1.70;;;;;;;21.58;100.00;63114.47;5063423;28;20228;-74
2022/07/11 06:28:25;;;;;;;3.80;1.47;;;;;;;21.70;100.00;63122.28;5071038;28;20258;-77
2022/07/11 06:30:53;;;;;;;4.20;1.90;;;;;;;21.51;100.00;63096.53;5055586;28;20245;-78
2022/07/11 06:33:21;;;;;;;5.67;1.43;;;;;;;21.42;100.00;63091.97;5071292;28;20200;-76
2022/07/11 06:35:49;;;;;;;9.33;2.30;;;;;;;21.31;100.00;63080.09;5072279;28;20583;-76
2022/07/11 06:38:17;;;;;;;7.13;1.77;;;;;;;21.01;100.00;63046.09;5074436;28;20667;-77
2022/07/11 06:40:45;;;;;;;2.57;1.60;;;;;;;21.61;100.00;63112.56;5074534;28;20200;-76
2022/07/11 06:43:13;;;;;;;2.20;1.43;;;;;;;21.34;100.00;63083.31;5074103;28;20702;-75
2022/07/11 06:45:40;;;;;;;15.47;2.10;;;;;;;21.33;100.00;63077.06;5074901;28;20204;-76
2022/07/11 06:48:08;;;;;;;2.33;1.20;;;;;;;21.43;100.00;63098.78;5074743;28;20200;-76
2022/07/11 06:50:36;;;;;;;5.70;1.60;;;;;;;21.35;100.00;63084.41;5074112;28;20197;-76
2022/07/11 06:53:03;;;;;;;20.90;1.97;;;;;;;21.60;100.00;63108.88;5074002;28;20340;-77
2022/07/11 06:55:30;;;;;;;11.07;2.17;;;;;;;21.57;100.00;63110.81;5073647;28;20203;-77
2022/07/11 06:57:57;;;;;;;43.33;3.73;;;;;;;21.03;100.00;63050.84;5063068;28;20292;-76
2022/07/11 07:00:24;;;;;;;5.40;1.60;;;;;;;21.38;100.00;63087.66;5055723;28;20747;-78
2022/07/11 07:02:52;;;;;;;4.23;1.47;;;;;;;21.53;100.00;63109.06;5070996;28;20232;-77
2022/07/11 07:05:20;;;;;;;2.47;1.40;;;;;;;20.94;100.00;63040.56;5073521;28;20246;-78
2022/07/11 07:07:47;;;;;;;3.90;1.37;;;;;;;21.09;100.00;63056.81;5073709;28;20211;-77
2022/07/11 07:10:14;;;;;;;1.50;1.13;;;;;;;20.79;100.00;63021.72;5071882;28;20211;-77
2022/07/11 07:12:44;;;;;;;1.00;1.00;;;;;;;21.10;100.00;63059.94;5073962;28;20205;-79
2022/07/11 07:15:11;;;;;;;3.60;1.33;;;;;;;20.92;100.00;63038.94;5073880;28;20212;-77
2022/07/11 07:17:39;;;;;;;5.03;1.50;;;;;;;21.11;100.00;63056.38;5073815;28;20200;-77
2022/07/11 07:20:10;;;;;;;4.20;1.27;;;;;;;20.95;100.00;63039.59;5061111;28;20288;-77
2022/07/11 07:22:39;;;;;;;3.87;1.20;;;;;;;21.09;100.00;63056.28;5073050;28;20717;-76
2022/07/11 07:25:08;;;;;;;2.73;1.40;;;;;;;21.32;100.00;63084.28;5073437;28;20595;-77
2022/07/11 07:27:35;;;;;;;3.13;1.20;;;;;;;21.16;100.00;63063.84;5073475;28;20249;-77
2022/07/11 07:30:04;;;;;;;2.80;1.70;;;;;;;21.85;100.00;63143.75;5073863;28;20207;-76
2022/07/11 07:32:33;;;;;;;5.40;1.60;;;;;;;21.91;100.00;63139.31;5076584;28;20208;-78
2022/07/11 07:35:00;;;;;;;2.40;1.20;;;;;;;21.94;100.00;63147.75;5073870;28;20219;-78
2022/07/11 07:37:27;;;;;;;2.10;1.40;;;;;;;21.87;100.00;63140.72;5073655;28;20252;-79
2022/07/11 07:39:57;;;;;;;4.83;1.23;;;;;;;21.71;100.00;63123.38;5069902;28;20204;-76
2022/07/11 07:42:24;;;;;;;5.20;1.40;;;;;;;21.23;100.00;63071.41;5067088;28;20242;-76
2022/07/11 07:44:51;;;;;;;5.73;1.33;;;;;;;21.24;100.00;63072.50;5071599;28;20211;-76
2022/07/11 07:47:21;;;;;;;1.30;1.20;;;;;;;21.16;100.00;63063.84;5071575;28;20255;-78
2022/07/11 07:49:49;;;;;;;4.20;1.30;;;;;;;21.41;100.00;63090.91;5072891;28;20204;-77
2022/07/11 07:52:16;;;;;;;6.57;1.30;;;;;;;21.51;100.00;63101.72;5072966;28;20213;-77
2022/07/11 07:54:43;;;;;;;4.10;1.40;;;;;;;21.26;100.00;63072.06;5072624;28;20223;-77
2022/07/11 07:57:12;;;;;;;7.57;1.50;;;;;;;21.40;100.00;63089.81;5073404;28;20211;-76
2022/07/11 07:59:41;;;;;;;3.67;1.43;;;;;;;21.36;100.00;63085.47;5072527;28;20211;-79
2022/07/11 08:02:07;;;;;;;3.40;1.33;;;;;;;18.99;100.00;62828.22;5072897;28;20280;-78
2022/07/11 08:04:35;;;;;;;5.00;1.30;;;;;;;21.61;100.00;63109.97;5059870;28;20322;-78
2022/07/11 08:07:02;;;;;;;1.57;1.10;;;;;;;21.39;100.00;63088.75;5072121;28;20196;-76
2022/07/11 08:09:29;;;;;;;2.57;1.30;;;;;;;21.91;100.00;63145.06;5072593;28;20204;-76
2022/07/11 08:11:57;;;;;;;2.27;1.30;;;;;;;22.01;100.00;63155.88;5072489;28;20682;-78
2022/07/11 08:14:25;;;;;;;5.73;1.60;;;;;;;22.15;100.00;63171.06;5072392;28;20698;-77
2022/07/11 08:16:52;;;;;;;7.07;1.70;;;;;;;21.26;100.00;63077.78;5072619;28;20199;-75
2022/07/11 08:19:20;;;;;;;4.73;2.00;;;;;;;21.86;100.00;63144.81;5066481;28;20573;-75
2022/07/11 08:21:47;;;;;;;2.20;1.00;;;;;;;21.89;100.00;63142.91;5052985;28;20205;-80
2022/07/11 08:24:14;;;;;;;4.83;1.60;;;;;;;22.17;100.00;63170.06;5071777;28;20728;-77
2022/07/11 08:26:41;;;;;;;5.43;1.47;;;;;;;22.30;100.00;63186.75;5072127;28;20259;-76
2022/07/11 08:29:09;;;;;;;3.63;1.30;;;;;;;22.41;100.00;63198.66;5072063;28;20203;-77
2022/07/11 08:31:37;;;;;;;8.23;1.33;;;;;;;22.11;100.00;63166.72;5072430;28;20206;-76
2022/07/11 08:34:04;;;;;;;5.70;1.30;;;;;;;22.04;100.00;63159.13;5060435;28;20251;-76
2022/07/11 08:36:34;;;;;;;5.97;1.70;;;;;;;22.06;100.00;63160.75;5072391;28;20197;-77
2022/07/11 08:39:02;;;;;;;4.97;1.60;;;;;;;22.32;100.00;63189.44;5072590;28;20261;-77
2022/07/11 08:41:29;;;;;;;3.17;1.30;;;;;;;22.44;100.00;63201.91;5072017;28;20235;-77
2022/07/11 08:43:58;;;;;;;3.40;1.30;;;;;;;22.06;100.00;63161.28;5071864;28;20788;-76
2022/07/11 08:46:26;;;;;;;5.67;2.20;;;;;;;22.35;100.00;63192.16;5071581;28;20650;-77
2022/07/11 08:49:01;;;;;;;2.80;1.77;;;;;;;22.10;100.00;63162.47;5071852;28;20222;-78
2022/07/11 08:51:29;;;;;;;3.90;1.73;;;;;;;22.36;100.00;63204.16;5071994;28;20196;-79
2022/07/11 08:53:56;;;;;;;4.70;1.50;;;;;;;22.57;100.00;63218.59;5071841;28;20208;-76
2022/07/11 08:56:23;;;;;;;4.20;1.70;;;;;;;22.47;100.00;63205.72;5071928;28;20410;-77
2022/07/11 08:58:50;;;;;;;3.73;1.20;;;;;;;22.53;100.00;63211.66;5071311;28;20208;-76
2022/07/11 09:01:19;;;;;;;6.63;1.80;;;;;;;22.49;100.00;63209.94;5071485;28;20204;-77
2022/07/11 09:03:49;;;;;;;3.50;2.40;;;;;;;22.55;100.00;63208.63;5071377;28;20281;-77
2022/07/11 09:06:17;;;;;;;1.80;1.50;;;;;;;22.68;100.00;63228.47;5071751;28;20211;-76
2022/07/11 09:08:44;;;;;;;7.03;1.73;;;;;;;22.35;100.00;63195.31;5071365;28;20196;-77
2022/07/11 09:11:12;;;;;;;5.80;1.20;;;;;;;22.55;100.00;63214.38;5071416;28;20589;-76
2022/07/11 09:13:40;;;;;;;3.77;2.03;;;;;;;22.51;100.00;63209.50;5070968;28;20235;-76
2022/07/11 09:16:09;;;;;;;2.87;1.57;;;;;;;22.67;100.00;63227.41;5071053;28;20207;-77
2022/07/11 09:18:40;;;;;;;5.70;1.40;;;;;;;22.72;100.00;63231.75;5053278;28;20215;-78
2022/07/11 09:26:45;;;;;;;11.00;1.83;;;;;;;22.78;100.00;63238.25;5061262;28;20294;-76
2022/07/11 09:29:20;;;;;;;7.17;1.53;;;;;;;22.26;100.00;63177.75;5071004;28;20196;-77
2022/07/11 09:31:48;;;;;;;3.03;1.23;;;;;;;22.30;100.00;63184.16;5071768;28;20689;-77
2022/07/11 09:34:17;;;;;;;2.10;1.20;;;;;;;22.02;100.00;63156.97;5070821;28;20200;-77
2022/07/11 09:36:47;;;;;;;7.70;1.70;;;;;;;22.11;100.00;63166.72;5076947;28;20682;-76
2022/07/11 09:39:20;;;;;;;2.93;1.30;;;;;;;22.24;100.00;63180.78;5071034;28;20662;-76
2022/07/11 09:41:50;;;;;;;3.63;1.10;;;;;;;22.04;100.00;63161.72;5071543;28;20204;-78
2022/07/11 09:44:19;;;;;;;4.60;1.33;;;;;;;22.22;100.00;63178.63;5058357;28;20349;-77
2022/07/11 09:46:49;;;;;;;4.23;1.10;;;;;;;22.46;100.00;63204.63;5070691;28;20595;-76
2022/07/11 09:49:17;;;;;;;1.07;0.97;;;;;;;22.31;100.00;63188.38;5071383;28;20245;-76
2022/07/11 09:51:44;;;;;;;4.60;1.47;;;;;;;22.60;100.00;63214.06;5071160;28;20200;-78
2022/07/11 09:54:12;;;;;;;2.77;1.20;;;;;;;22.98;100.00;63263.03;5071146;28;20686;-76
2022/07/11 09:56:42;;;;;;;1.63;1.13;;;;;;;22.67;100.00;63227.41;5070691;28;20211;-78
2022/07/11 09:59:12;;;;;;;1.23;1.00;;;;;;;22.37;100.00;63194.88;5070797;28;20618;-77
2022/07/11 10:01:41;;;;;;;6.00;1.23;;;;;;;22.28;100.00;63190.31;5070638;28;20203;-76
2022/07/11 10:04:11;;;;;;;2.00;1.00;;;;;;;23.31;100.00;63296.25;5076646;28;20228;-78
2022/07/11 10:06:40;;;;;;;2.33;1.07;;;;;;;23.26;96.84;63290.28;5074514;28;20203;-76
2022/07/11 10:09:07;;;;;;;1.83;1.20;;;;;;;23.12;95.88;63272.50;5071102;28;20196;-77
2022/07/11 10:11:35;;;;;;;2.53;1.53;;;;;;;23.40;98.03;63305.47;5073102;28;20218;-78
2022/07/11 10:14:07;;;;;;;4.83;1.37;;;;;;;23.52;100.00;63315.88;5075105;28;20667;-77
2022/07/11 10:16:47;;;;;;;3.40;1.17;;;;;;;23.32;100.00;63296.78;5074706;28;20675;-77
2022/07/11 10:19:30;;;;;;;2.30;1.47;;;;;;;23.98;100.00;63368.38;5069845;28;20199;-77
2022/07/11 10:22:07;;;;;;;5.30;1.13;;;;;;;23.73;100.00;63341.25;5069445;28;20210;-76
2022/07/11 10:24:45;;;;;;;5.10;1.30;;;;;;;23.77;100.00;63345.59;5074990;28;20786;-77
2022/07/11 10:27:23;;;;;;;1.40;1.30;;;;;;;23.62;100.00;63326.19;5074541;28;20263;-78
2022/07/11 10:29:53;;;;;;;4.20;1.57;;;;;;;23.98;100.00;63365.78;5074909;28;20200;-78
2022/07/11 10:32:21;;;;;;;3.07;1.33;;;;;;;23.77;99.79;63345.59;5074591;28;20279;-78
2022/07/11 10:35:07;;;;;;;4.60;1.37;;;;;;;23.60;98.61;63327.16;5074190;28;20663;-77
2022/07/11 10:37:48;;;;;;;2.20;1.40;;;;;;;23.73;100.00;63343.84;5063645;28;20208;-76
2022/07/11 10:40:15;;;;;;;2.60;1.50;;;;;;;23.76;100.00;63344.50;5074270;28;20200;-77
2022/07/11 10:42:44;;;;;;;5.30;1.63;;;;;;;23.24;100.00;63282.91;5074436;28;20219;-76
2022/07/11 10:45:13;;;;;;;1.30;1.20;;;;;;;24.39;100.00;63409.19;5073923;28;20278;-76
2022/07/11 10:47:44;;;;;;;2.90;1.20;;;;;;;23.72;100.00;63340.19;5074712;28;20223;-77
2022/07/11 10:50:37;;;;;;;3.40;1.20;;;;;;;23.87;100.00;63356.44;5072992;28;20204;-76
2022/07/11 10:53:09;;;;;;;3.50;1.10;;;;;;;23.75;100.00;63338.22;5052718;28;20219;-77
2022/07/11 10:55:40;;;;;;;2.63;1.10;;;;;;;23.47;100.00;63308.41;5073794;28;20205;-79
2022/07/11 10:58:13;;;;;;;3.93;1.43;;;;;;;24.08;100.00;63379.25;5073993;28;20200;-77
2022/07/11 11:00:42;;;;;;;4.43;1.53;;;;;;;24.12;94.55;63383.59;5074464;28;20205;-77
2022/07/11 11:03:10;;;;;;;9.70;2.03;;;;;;;24.19;91.83;63391.19;5073990;28;20192;-78
2022/07/11 11:05:43;;;;;;;5.33;1.20;;;;;;;23.33;93.60;63297.88;5073833;28;20258;-76
2022/07/11 11:08:44;;;;;;;1.30;1.20;;;;;;;23.60;100.00;63327.16;5074488;28;20265;-76
2022/07/11 11:11:39;;;;;;;1.10;1.00;;;;;;;24.20;100.00;63391.72;5074192;28;20290;-76
2022/07/11 11:14:20;;;;;;;4.40;1.47;;;;;;;24.49;100.00;63423.19;5049329;28;20230;-76
2022/07/11 11:16:50;;;;;;;7.17;1.30;;;;;;;24.64;97.92;63436.88;5061651;28;20201;-77
2022/07/11 11:19:55;;;;;;;2.70;1.20;;;;;;;25.06;92.71;63484.53;5073350;28;20709;-77
2022/07/11 11:22:24;;;;;;;2.27;0.97;;;;;;;25.25;88.98;63505.19;5073582;28;20253;-77
2022/07/11 11:24:53;;;;;;;2.17;1.13;;;;;;;24.38;83.37;63410.72;5075441;28;20233;-76
2022/07/11 11:27:22;;;;;;;6.03;1.40;;;;;;;25.02;87.81;63475.00;5075485;28;20710;-77
2022/07/11 11:29:55;;;;;;;3.20;1.70;;;;;;;25.37;87.11;63518.22;5076107;28;20606;-76
2022/07/11 11:32:32;;;;;;;1.53;1.43;;;;;;;24.74;81.68;63455.56;5062093;28;20621;-75
2022/07/11 11:34:59;;;;;;;3.50;1.30;;;;;;;24.89;85.67;63466.09;5074676;28;20692;-76
2022/07/11 11:37:27;;;;;;;8.97;1.53;;;;;;;25.23;82.66;63499.88;5066861;28;20216;-77
2022/07/11 11:40:00;;;;;;;6.27;1.60;;;;;;;25.11;82.50;63490.00;5055983;28;20204;-76
2022/07/11 11:42:30;;;;;;;2.60;1.10;;;;;;;25.39;84.26;63520.41;5066072;28;20205;-78